createdAt,value
2022-11-30T00:01:33.837Z,100.00
2022-11-30T00:04:37.910Z,100.00
2022-11-30T00:07:40.905Z,100.00
2022-11-30T00:10:43.788Z,100.00
2022-11-30T00:13:46.499Z,100.00
2022-11-30T00:16:49.270Z,100.00
2022-11-30T00:19:53.733Z,100.00
2022-11-30T00:22:57.262Z,100.00
2022-11-30T00:26:03.112Z,100.00
2022-11-30T00:29:05.915Z,100.00
2022-11-30T00:32:08.657Z,100.00
2022-11-30T00:35:12.765Z,100.00
2022-11-30T00:38:15.718Z,100.00
2022-11-30T00:41:19.505Z,100.00
2022-11-30T00:44:22.311Z,100.00
2022-11-30T00:47:25.110Z,100.00
2022-11-30T00:50:29.154Z,100.00
2022-11-30T00:53:32.033Z,100.00
2022-11-30T00:56:34.812Z,100.00
2022-11-30T00:59:37.646Z,100.00
2022-11-30T01:02:40.461Z,100.00
2022-11-30T01:05:44.634Z,100.00
2022-11-30T01:08:48.073Z,100.00
2022-11-30T01:11:50.839Z,100.00
2022-11-30T01:14:53.549Z,100.00
2022-11-30T01:17:56.277Z,100.00
2022-11-30T01:21:00.329Z,100.00
2022-11-30T01:24:03.811Z,100.00
2022-11-30T01:27:06.541Z,100.00
2022-11-30T01:30:10.212Z,100.00
2022-11-30T01:33:12.932Z,100.00
2022-11-30T01:36:18.455Z,100.00
2022-11-30T01:39:21.217Z,100.00
2022-11-30T01:42:23.960Z,100.00
2022-11-30T01:45:26.696Z,100.00
2022-11-30T01:48:30.334Z,100.00
2022-11-30T01:51:39.215Z,100.00
2022-11-30T01:54:47.180Z,100.00
2022-11-30T01:57:53.859Z,100.00
2022-11-30T02:00:56.852Z,100.00
2022-11-30T02:04:04.516Z,100.00
2022-11-30T02:07:09.580Z,100.00
2022-11-30T02:10:15.956Z,100.00
2022-11-30T02:13:41.610Z,100.00
2022-11-30T02:16:55.573Z,100.00
2022-11-30T02:20:27.713Z,100.00
2022-11-30T02:24:12.377Z,100.00
2022-11-30T02:27:26.178Z,100.00
2022-11-30T02:30:35.131Z,100.00
2022-11-30T02:33:41.437Z,100.00
2022-11-30T02:36:47.069Z,100.00
2022-11-30T02:39:49.789Z,100.00
2022-11-30T02:42:55.558Z,100.00
2022-11-30T02:46:08.863Z,100.00
2022-11-30T02:49:18.632Z,100.00
2022-11-30T02:52:25.268Z,100.00
2022-11-30T02:55:30.410Z,100.00
2022-11-30T02:58:33.214Z,100.00
2022-11-30T03:01:37.836Z,100.00
2022-11-30T03:04:40.592Z,100.00
2022-11-30T03:07:43.422Z,100.00
2022-11-30T03:10:46.242Z,100.00
2022-11-30T03:13:49.012Z,100.00
2022-11-30T03:16:53.184Z,100.00
2022-11-30T03:19:55.939Z,100.00
2022-11-30T03:23:02.228Z,100.00
2022-11-30T03:26:06.809Z,100.00
2022-11-30T03:29:09.888Z,100.00
2022-11-30T03:32:13.957Z,100.00
2022-11-30T03:35:16.876Z,100.00
2022-11-30T03:38:19.696Z,100.00
2022-11-30T03:41:22.503Z,100.00
2022-11-30T03:44:25.298Z,100.00
2022-11-30T03:47:29.334Z,100.00
2022-11-30T03:50:32.468Z,100.00
2022-11-30T03:53:35.538Z,100.00
2022-11-30T03:56:38.450Z,100.00
2022-11-30T03:59:41.238Z,100.00
2022-11-30T04:02:45.432Z,100.00
2022-11-30T04:05:48.643Z,100.00
2022-11-30T04:08:51.794Z,100.00
2022-11-30T04:11:54.631Z,100.00
2022-11-30T04:14:57.400Z,100.00
2022-11-30T04:18:01.504Z,100.00
2022-11-30T04:21:04.941Z,100.00
2022-11-30T04:24:09.049Z,100.00
2022-11-30T04:27:11.830Z,100.00
2022-11-30T04:30:15.953Z,100.00
2022-11-30T04:33:20.093Z,100.00
2022-11-30T04:36:22.926Z,100.00
2022-11-30T04:39:25.906Z,100.00
2022-11-30T04:42:28.663Z,100.00
2022-11-30T04:45:35.313Z,100.00
2022-11-30T04:48:40.003Z,100.00
2022-11-30T04:51:42.814Z,100.00
2022-11-30T04:54:45.973Z,100.00
2022-11-30T04:57:49.770Z,100.00
2022-11-30T05:00:54.841Z,100.00
2022-11-30T05:04:00.276Z,100.00
2022-11-30T05:07:03.557Z,100.00
2022-11-30T05:10:08.104Z,100.00
2022-11-30T05:13:10.890Z,100.00
2022-11-30T05:16:13.669Z,100.00
2022-11-30T05:19:17.816Z,100.00
2022-11-30T05:22:20.579Z,100.00
2022-11-30T05:25:23.351Z,100.00
2022-11-30T05:28:26.058Z,100.00
2022-11-30T05:31:29.061Z,100.00
2022-11-30T05:34:49.426Z,100.00
2022-11-30T05:37:53.168Z,100.00
2022-11-30T05:41:01.454Z,100.00
2022-11-30T05:44:04.536Z,100.00
2022-11-30T05:47:07.791Z,100.00
2022-11-30T05:50:12.391Z,100.00
2022-11-30T05:53:15.084Z,100.00
2022-11-30T05:56:21.090Z,100.00
2022-11-30T05:59:24.401Z,100.00
2022-11-30T06:02:28.440Z,100.00
2022-11-30T06:05:36.368Z,100.00
2022-11-30T06:08:39.298Z,100.00
2022-11-30T06:11:42.018Z,100.00
2022-11-30T06:14:45.124Z,100.00
2022-11-30T06:17:48.053Z,100.00
2022-11-30T06:20:52.148Z,100.00
2022-11-30T06:23:54.942Z,100.00
2022-11-30T06:26:57.697Z,100.00
2022-11-30T06:30:00.433Z,100.00
2022-11-30T06:33:03.674Z,100.00
2022-11-30T06:36:08.789Z,100.00
2022-11-30T06:39:12.278Z,100.00
2022-11-30T06:42:15.031Z,100.00
2022-11-30T06:45:18.027Z,100.00
2022-11-30T06:48:22.961Z,100.00
2022-11-30T06:51:27.058Z,100.00
2022-11-30T06:54:29.902Z,100.00
2022-11-30T06:57:32.644Z,100.00
2022-11-30T07:00:35.564Z,100.00
2022-11-30T07:03:38.683Z,100.00
2022-11-30T07:06:43.438Z,100.00
2022-11-30T07:09:46.174Z,100.00
2022-11-30T07:12:48.893Z,100.00
2022-11-30T07:15:51.823Z,100.00
2022-11-30T07:18:54.591Z,100.00
2022-11-30T07:21:58.674Z,100.00
2022-11-30T07:25:18.790Z,100.00
2022-11-30T07:28:21.541Z,100.00
2022-11-30T07:31:27.068Z,100.00
2022-11-30T07:34:30.617Z,100.00
2022-11-30T07:37:34.703Z,100.00
2022-11-30T07:40:37.444Z,100.00
2022-11-30T07:43:40.559Z,100.00
2022-11-30T07:46:43.383Z,100.00
2022-11-30T07:49:46.187Z,100.00
2022-11-30T07:52:50.228Z,100.00
2022-11-30T07:55:56.975Z,100.00
2022-11-30T07:59:01.795Z,100.00
2022-11-30T08:02:04.816Z,100.00
2022-11-30T08:05:11.323Z,100.00
2022-11-30T08:08:15.456Z,100.00
2022-11-30T08:11:20.277Z,100.00
2022-11-30T08:14:23.061Z,100.00
2022-11-30T08:17:25.899Z,100.00
2022-11-30T08:20:28.626Z,100.00
2022-11-30T08:23:34.844Z,100.00
2022-11-30T08:26:37.677Z,100.00
2022-11-30T08:29:41.335Z,100.00
2022-11-30T08:32:44.111Z,100.00
2022-11-30T08:35:46.894Z,100.00
2022-11-30T08:38:51.033Z,100.00
2022-11-30T08:41:53.909Z,100.00
2022-11-30T08:44:56.671Z,100.00
2022-11-30T08:47:59.569Z,100.00
2022-11-30T08:51:02.976Z,100.00
2022-11-30T08:54:07.202Z,100.00
2022-11-30T08:57:09.915Z,100.00
2022-11-30T09:00:13.930Z,100.00
2022-11-30T09:03:16.661Z,100.00
2022-11-30T09:06:21.127Z,100.00
2022-11-30T09:09:25.438Z,99.59
2022-11-30T09:12:28.203Z,99.14
2022-11-30T09:15:31.104Z,97.01
2022-11-30T09:18:34.918Z,97.15
2022-11-30T09:21:37.770Z,97.04
2022-11-30T09:24:41.897Z,98.30
2022-11-30T09:27:44.669Z,99.21
2022-11-30T09:30:47.453Z,98.97
2022-11-30T09:33:52.584Z,99.46
2022-11-30T09:36:55.960Z,97.24
2022-11-30T09:40:00.117Z,97.00
2022-11-30T09:43:07.880Z,96.96
2022-11-30T09:46:12.148Z,97.33
2022-11-30T09:49:20.075Z,97.42
2022-11-30T09:52:29.638Z,98.17
2022-11-30T09:55:40.028Z,99.27
2022-11-30T09:58:49.057Z,99.57
2022-11-30T10:01:56.651Z,99.33
2022-11-30T10:05:00.811Z,99.86
2022-11-30T10:08:20.528Z,100.00
2022-11-30T10:11:42.270Z,99.73
2022-11-30T10:15:00.607Z,100.00
2022-11-30T10:18:13.192Z,99.08
2022-11-30T10:21:28.400Z,98.40
2022-11-30T10:24:45.749Z,98.48
2022-11-30T10:27:53.303Z,98.11
2022-11-30T10:30:56.050Z,98.40
2022-11-30T10:34:04.701Z,97.17
2022-11-30T10:37:12.579Z,97.13
2022-11-30T10:40:20.798Z,97.78
2022-11-30T10:43:29.830Z,97.52
2022-11-30T10:46:37.625Z,97.16
2022-11-30T10:49:45.306Z,95.90
2022-11-30T10:52:52.088Z,96.08
2022-11-30T10:56:02.019Z,96.33
2022-11-30T10:59:12.893Z,96.93
2022-11-30T11:02:36.451Z,96.96
2022-11-30T11:05:39.222Z,95.40
2022-11-30T11:08:45.467Z,95.13
2022-11-30T11:11:54.996Z,95.17
2022-11-30T11:15:11.668Z,95.45
2022-11-30T11:18:24.460Z,95.81
2022-11-30T11:21:28.467Z,96.48
2022-11-30T11:24:31.422Z,95.82
2022-11-30T11:27:37.535Z,95.77
2022-11-30T11:30:45.579Z,95.59
2022-11-30T11:33:53.734Z,96.21
2022-11-30T11:37:06.298Z,97.05
2022-11-30T11:40:15.914Z,96.21
2022-11-30T11:43:19.643Z,95.53
2022-11-30T11:46:24.149Z,95.17
2022-11-30T11:49:29.745Z,96.02
2022-11-30T11:52:32.483Z,96.73
2022-11-30T11:55:36.517Z,96.84
2022-11-30T11:58:44.084Z,97.12
2022-11-30T12:01:56.414Z,97.70
2022-11-30T12:05:04.044Z,97.44
2022-11-30T12:08:14.466Z,96.32
2022-11-30T12:11:20.599Z,96.36
2022-11-30T12:14:23.457Z,97.18
2022-11-30T12:17:52.378Z,95.88
2022-11-30T12:20:59.458Z,96.77
2022-11-30T12:24:15.768Z,97.00
2022-11-30T12:27:26.366Z,97.19
2022-11-30T12:30:38.958Z,96.70
2022-11-30T12:34:14.769Z,96.00
2022-11-30T12:37:25.561Z,96.46
2022-11-30T12:40:37.622Z,97.01
2022-11-30T12:43:59.403Z,97.11
2022-11-30T12:47:20.298Z,97.30
2022-11-30T12:50:39.365Z,97.44
2022-11-30T12:53:48.421Z,97.71
2022-11-30T12:56:56.130Z,97.71
2022-11-30T13:00:07.166Z,97.68
2022-11-30T13:03:42.588Z,97.52
2022-11-30T13:06:49.782Z,98.25
2022-11-30T13:09:57.699Z,98.55
2022-11-30T13:13:03.240Z,98.74
2022-11-30T13:16:09.514Z,97.49
2022-11-30T13:19:27.556Z,97.83
2022-11-30T13:22:43.945Z,98.28
2022-11-30T13:29:50.349Z,99.04
2022-11-30T13:32:58.320Z,99.34
2022-11-30T13:36:04.999Z,99.50
2022-11-30T13:39:30.815Z,99.82
2022-11-30T13:42:36.281Z,100.00
2022-11-30T13:45:39.216Z,100.00
2022-11-30T13:48:43.881Z,100.00
2022-11-30T13:51:56.775Z,100.00
2022-11-30T13:55:43.045Z,100.00
2022-11-30T13:59:18.985Z,99.02
2022-11-30T14:03:00.169Z,98.12
2022-11-30T14:06:28.962Z,98.29
2022-11-30T14:09:58.308Z,98.83
2022-11-30T14:13:03.359Z,97.82
2022-11-30T14:16:21.356Z,97.36
2022-11-30T14:19:24.271Z,98.28
2022-11-30T14:22:30.426Z,98.95
2022-11-30T14:25:36.150Z,99.01
2022-11-30T14:28:43.909Z,99.24
2022-11-30T14:31:57.785Z,99.27
2022-11-30T14:35:08.947Z,99.57
2022-11-30T14:38:24.493Z,99.48
2022-11-30T14:41:29.356Z,99.38
2022-11-30T14:44:35.710Z,99.20
2022-11-30T14:47:41.322Z,99.26
2022-11-30T14:50:49.473Z,99.13
2022-11-30T14:53:59.629Z,98.76
2022-11-30T14:57:12.414Z,99.05
2022-11-30T15:00:17.863Z,98.83
2022-11-30T15:03:26.461Z,98.40
2022-11-30T15:06:33.304Z,98.62
2022-11-30T15:09:37.697Z,98.50
2022-11-30T15:12:41.754Z,98.65
2022-11-30T15:15:52.378Z,98.32
2022-11-30T15:18:57.335Z,98.25
2022-11-30T15:22:00.385Z,98.30
2022-11-30T15:25:05.840Z,98.19
2022-11-30T15:28:10.640Z,98.00
2022-11-30T15:31:17.763Z,97.80
2022-11-30T15:34:23.091Z,98.03
2022-11-30T15:37:31.178Z,98.03
2022-11-30T15:40:35.899Z,97.28
2022-11-30T15:43:40.708Z,97.19
2022-11-30T15:46:56.959Z,97.38
2022-11-30T15:49:59.772Z,97.61
2022-11-30T15:53:04.305Z,96.58
2022-11-30T15:56:10.487Z,96.73
2022-11-30T15:59:23.450Z,96.59
2022-11-30T16:02:32.248Z,96.84
2022-11-30T16:05:35.035Z,97.18
2022-11-30T16:08:37.904Z,97.41
2022-11-30T16:11:42.094Z,96.21
2022-11-30T16:14:44.861Z,95.48
2022-11-30T16:17:47.668Z,96.25
2022-11-30T16:20:52.903Z,96.66
2022-11-30T16:23:55.661Z,96.66
2022-11-30T16:26:59.981Z,97.14
2022-11-30T16:30:03.427Z,96.90
2022-11-30T16:33:07.076Z,96.43
2022-11-30T16:36:14.448Z,96.17
2022-11-30T16:39:18.570Z,96.94
2022-11-30T16:42:32.182Z,96.64
2022-11-30T16:45:37.767Z,96.88
2022-11-30T16:48:41.311Z,96.46
2022-11-30T16:51:44.468Z,96.50
2022-11-30T16:54:47.190Z,96.22
2022-11-30T16:57:52.019Z,94.74
2022-11-30T17:00:55.064Z,94.91
2022-11-30T17:03:58.060Z,95.06
2022-11-30T17:07:02.990Z,93.99
2022-11-30T17:10:07.136Z,94.92
2022-11-30T17:13:14.914Z,93.99
2022-11-30T17:16:17.832Z,94.23
2022-11-30T17:19:20.827Z,93.13
2022-11-30T17:22:23.562Z,93.67
2022-11-30T17:25:26.462Z,91.86
2022-11-30T17:28:30.597Z,91.71
2022-11-30T17:31:33.813Z,91.47
2022-11-30T17:34:36.595Z,92.42
2022-11-30T17:37:40.102Z,92.31
2022-11-30T17:40:43.128Z,92.96
2022-11-30T17:43:47.297Z,91.21
2022-11-30T17:46:50.094Z,89.56
2022-11-30T17:49:52.889Z,91.29
2022-11-30T17:52:55.735Z,92.02
2022-11-30T17:56:05.966Z,91.69
2022-11-30T17:59:10.213Z,90.91
2022-11-30T18:02:13.619Z,91.84
2022-11-30T18:05:16.598Z,89.75
2022-11-30T18:08:19.617Z,90.97
2022-11-30T18:11:24.664Z,90.92
2022-11-30T18:14:28.848Z,91.41
2022-11-30T18:17:32.041Z,91.34
2022-11-30T18:20:34.923Z,91.44
2022-11-30T18:23:38.142Z,91.45
2022-11-30T18:26:41.661Z,91.50
2022-11-30T18:29:45.751Z,91.46
2022-11-30T18:32:48.864Z,91.66
2022-11-30T18:35:51.736Z,91.85
2022-11-30T18:38:54.860Z,90.68
2022-11-30T18:41:57.756Z,91.32
2022-11-30T18:45:02.274Z,90.38
2022-11-30T18:48:06.400Z,90.31
2022-11-30T18:51:13.598Z,90.81
2022-11-30T18:54:16.373Z,89.85
2022-11-30T18:57:19.169Z,90.51
2022-11-30T19:00:24.766Z,90.23
2022-11-30T19:03:27.559Z,91.14
2022-11-30T19:06:32.785Z,90.46
2022-11-30T19:09:35.547Z,90.17
2022-11-30T19:12:38.508Z,90.74
2022-11-30T19:15:43.361Z,91.57
2022-11-30T19:18:48.403Z,91.85
2022-11-30T19:21:51.333Z,92.07
2022-11-30T19:24:54.042Z,91.94
2022-11-30T19:27:56.825Z,92.12
2022-11-30T19:31:02.469Z,92.10
2022-11-30T19:34:11.974Z,91.95
2022-11-30T19:37:15.623Z,92.19
2022-11-30T19:40:18.531Z,92.08
2022-11-30T19:43:21.268Z,92.24
2022-11-30T19:46:26.238Z,91.71
2022-11-30T19:49:28.977Z,90.98
2022-11-30T19:52:31.828Z,91.28
2022-11-30T19:55:34.612Z,90.77
2022-11-30T19:58:37.371Z,90.63
2022-11-30T20:01:41.809Z,91.28
2022-11-30T20:04:44.736Z,91.06
2022-11-30T20:07:47.572Z,90.93
2022-11-30T20:10:50.408Z,91.10
2022-11-30T20:13:53.293Z,90.90
2022-11-30T20:16:57.387Z,91.42
2022-11-30T20:20:00.127Z,91.24
2022-11-30T20:23:04.616Z,90.97
2022-11-30T20:26:15.697Z,90.84
2022-11-30T20:29:19.240Z,90.74
2022-11-30T20:32:23.996Z,90.91
2022-11-30T20:35:26.871Z,90.38
2022-11-30T20:38:30.124Z,90.63
2022-11-30T20:41:33.981Z,89.79
2022-11-30T20:44:37.364Z,90.40
2022-11-30T20:47:41.459Z,90.51
2022-11-30T20:51:01.194Z,89.38
2022-11-30T20:54:08.172Z,88.55
2022-11-30T20:57:10.955Z,88.40
2022-11-30T21:00:14.988Z,89.25
2022-11-30T21:03:19.143Z,89.11
2022-11-30T21:06:22.002Z,89.29
2022-11-30T21:09:24.751Z,89.10
2022-11-30T21:12:27.663Z,89.01
2022-11-30T21:15:30.515Z,89.28
2022-11-30T21:18:34.872Z,87.88
2022-11-30T21:21:37.744Z,89.22
2022-11-30T21:24:40.551Z,89.19
2022-11-30T21:27:43.432Z,89.40
2022-11-30T21:30:46.307Z,88.85
2022-11-30T21:33:53.627Z,89.31
2022-11-30T21:36:56.733Z,89.69
2022-11-30T21:39:59.559Z,89.81
2022-11-30T21:43:02.308Z,89.56
2022-11-30T21:46:07.645Z,89.04
2022-11-30T21:49:12.338Z,87.85
2022-11-30T21:52:15.268Z,87.50
2022-11-30T21:55:18.414Z,87.46
2022-11-30T21:58:21.651Z,88.39
2022-11-30T22:01:27.264Z,88.87
2022-11-30T22:04:38.012Z,88.72
2022-11-30T22:07:41.055Z,88.16
2022-11-30T22:10:44.040Z,86.63
2022-11-30T22:13:50.530Z,87.11
2022-11-30T22:16:53.738Z,86.52
2022-11-30T22:19:57.987Z,86.71
2022-11-30T22:23:00.945Z,87.66
2022-11-30T22:26:15.622Z,86.80
2022-11-30T22:29:20.869Z,85.43
2022-11-30T22:32:24.236Z,86.60
2022-11-30T22:35:28.615Z,86.33
2022-11-30T22:38:31.904Z,86.86
2022-11-30T22:41:34.860Z,86.50
2022-11-30T22:44:37.722Z,86.76
2022-11-30T22:47:40.501Z,86.60
2022-11-30T22:50:44.666Z,86.45
2022-11-30T22:53:48.280Z,86.48
2022-11-30T22:56:51.075Z,86.13
2022-11-30T22:59:53.783Z,87.00
2022-11-30T23:02:56.651Z,87.63
2022-11-30T23:06:02.307Z,88.28
2022-11-30T23:09:06.661Z,88.14
2022-11-30T23:12:09.605Z,88.54
2022-11-30T23:15:12.608Z,88.77
2022-11-30T23:18:15.395Z,87.87
2022-11-30T23:21:21.485Z,87.40
2022-11-30T23:24:24.362Z,87.31
2022-11-30T23:27:27.130Z,87.72
2022-11-30T23:30:30.053Z,87.12
2022-11-30T23:33:32.832Z,87.44
2022-11-30T23:36:37.935Z,87.36
2022-11-30T23:39:40.673Z,87.78
2022-11-30T23:42:43.477Z,88.33
2022-11-30T23:45:46.644Z,88.53
2022-11-30T23:48:49.636Z,88.91
2022-11-30T23:51:53.743Z,88.96
2022-11-30T23:54:56.567Z,88.89
2022-11-30T23:57:59.345Z,89.26
